Terminal Aerodrome Forecast
Issued by NWS Wilmington, OH

Current Version | Previous Version | Graphics & Text | Print | Product List | Glossary On
Versions: 1 2 3 4 5 6 7 8 9 10 11 12 13 14 15 16 17 18 19 20 21 22 23 24 25 26 27
448
FTUS41 KILN 211217 AAA
TAFCMH
TAF AMD
KCMH 211217Z 2112/2212 28005KT P6SM TSRA OVC019CB
      TEMPO 2112/2113 2SM -TSRA BR SCT009 BKN015CB OVC050
     FM211400 32008KT P6SM -SHRA VCTS SCT025CB BKN035
     FM211600 30005KT P6SM VCSH BKN035
     FM212200 14004KT P6SM FEW035 SCT250
     FM220900 17003KT P6SM -SHRA VCTS BKN040CB=

USA.gov is the U.S. government's official web portal to all federal, state and local government web resources and services.